Time;durP1;ratioP1;P1;durP2;ratioP2;P2;SDS_P1;SDS_P2;PMS_P1;PMS_P2;Temp;Humidity;BMP_temperature;BMP_pressure;BME280_temperature;BME280_humidity;BME280_pressure;Samples;Min_cycle;Max_cycle;Signal;HPM_P1;HPM_P2
2023/06/19 00:00:15;;;;;;;7.32;4.50;;;25.60;88.50;;;;;;7388038;19;20158;-71
2023/06/19 00:02:41;;;;;;;5.45;4.68;;;25.60;88.70;;;;;;7385710;19;20138;-71
2023/06/19 00:05:07;;;;;;;5.63;4.07;;;25.60;88.70;;;;;;7389391;19;20155;-70
2023/06/19 00:07:34;;;;;;;5.25;4.40;;;25.50;89.10;;;;;;7385647;19;20854;-70
2023/06/19 00:10:00;;;;;;;5.22;4.43;;;25.60;89.20;;;;;;7387716;19;20153;-71
2023/06/19 00:12:26;;;;;;;6.45;4.40;;;25.50;88.90;;;;;;7388402;19;20483;-70
2023/06/19 00:14:52;;;;;;;4.47;4.07;;;25.50;89.50;;;;;;7388400;19;20159;-70
2023/06/19 00:17:17;;;;;;;5.88;4.50;;;25.50;89.20;;;;;;7385847;19;20158;-70
2023/06/19 00:19:44;;;;;;;4.38;3.97;;;25.50;89.60;;;;;;7384912;19;20147;-70
2023/06/19 00:22:10;;;;;;;4.90;4.40;;;25.50;90.00;;;;;;7387237;19;20173;-71
2023/06/19 00:24:35;;;;;;;4.70;4.22;;;25.50;90.10;;;;;;7387979;19;20138;-71
2023/06/19 00:27:02;;;;;;;4.22;3.83;;;25.50;89.90;;;;;;7385093;19;20166;-70
2023/06/19 00:29:32;;;;;;;4.47;3.90;;;25.40;90.00;;;;;;7386551;19;20218;-71
2023/06/19 00:31:59;;;;;;;5.70;4.38;;;25.40;90.10;;;;;;7386767;19;20158;-70
2023/06/19 00:34:24;;;;;;;4.53;4.00;;;25.50;90.20;;;;;;7387124;19;20155;-70
2023/06/19 00:36:55;;;;;;;4.43;3.70;;;25.40;90.30;;;;;;7388507;19;20146;-70
2023/06/19 00:39:22;;;;;;;5.47;4.47;;;25.50;90.00;;;;;;7385583;19;20173;-70
2023/06/19 00:41:49;;;;;;;4.53;4.10;;;25.50;90.00;;;;;;7387105;19;20824;-71
2023/06/19 00:44:15;;;;;;;4.18;3.72;;;25.50;90.00;;;;;;7386731;19;20157;-70
2023/06/19 00:46:41;;;;;;;4.25;3.83;;;25.50;90.30;;;;;;7385348;19;20150;-70
2023/06/19 00:49:08;;;;;;;5.68;4.22;;;25.50;90.30;;;;;;7386056;19;20243;-71
2023/06/19 00:51:34;;;;;;;6.18;4.45;;;25.50;90.40;;;;;;7387361;19;20162;-71
2023/06/19 00:54:00;;;;;;;4.72;4.30;;;25.50;90.60;;;;;;7387092;19;20151;-70
2023/06/19 00:56:26;;;;;;;5.47;3.92;;;25.50;90.40;;;;;;7378826;19;21109;-71
2023/06/19 00:58:53;;;;;;;4.70;4.05;;;25.50;90.50;;;;;;7387627;19;20142;-71
2023/06/19 01:01:21;;;;;;;4.30;3.90;;;25.50;90.40;;;;;;7382538;19;20160;-69
2023/06/19 01:03:47;;;;;;;4.80;3.97;;;25.50;90.40;;;;;;7387264;19;20134;-71
2023/06/19 01:06:22;;;;;;;4.53;4.00;;;25.60;90.30;;;;;;7382996;19;20150;-71
2023/06/19 01:09:05;;;;;;;4.18;3.70;;;25.50;90.30;;;;;;7385596;19;20151;-69
2023/06/19 01:11:39;;;;;;;4.43;4.03;;;25.60;90.30;;;;;;7387899;19;20510;-71
2023/06/19 01:14:31;;;;;;;4.15;3.75;;;25.60;90.20;;;;;;7384801;19;20154;-72
2023/06/19 01:16:57;;;;;;;5.18;3.17;;;25.60;90.40;;;;;;7382226;19;20157;-71
2023/06/19 01:19:23;;;;;;;4.05;3.65;;;25.60;90.60;;;;;;7385232;19;20538;-70
2023/06/19 01:21:50;;;;;;;4.80;3.70;;;25.50;90.00;;;;;;7386988;19;20467;-71
2023/06/19 01:24:16;;;;;;;4.55;4.03;;;25.40;90.00;;;;;;7384149;19;20147;-71
2023/06/19 01:26:45;;;;;;;3.65;3.35;;;25.40;90.00;;;;;;7383345;19;20127;-71
2023/06/19 01:29:17;;;;;;;5.63;3.42;;;25.40;90.10;;;;;;7386567;19;20146;-71
2023/06/19 01:31:50;;;;;;;3.88;3.22;;;25.40;90.20;;;;;;7382233;19;20139;-71
2023/06/19 01:34:19;;;;;;;3.35;3.05;;;25.30;90.50;;;;;;7385235;19;20160;-70
2023/06/19 01:36:47;;;;;;;4.10;3.08;;;25.20;90.60;;;;;;7385529;19;20131;-71
2023/06/19 01:39:15;;;;;;;4.70;2.70;;;25.30;90.80;;;;;;7385513;19;20135;-70
2023/06/19 01:41:43;;;;;;;3.38;2.95;;;25.20;91.00;;;;;;7384088;19;20234;-70
2023/06/19 01:44:09;;;;;;;3.22;2.92;;;25.10;91.40;;;;;;7386018;19;20159;-71
2023/06/19 01:46:35;;;;;;;3.15;2.85;;;25.00;91.50;;;;;;7380501;19;20155;-71
2023/06/19 01:49:00;;;;;;;3.70;3.40;;;25.00;91.80;;;;;;7383127;19;20158;-71
2023/06/19 01:51:26;;;;;;;3.83;2.60;;;24.90;92.00;;;;;;7384767;19;20146;-71
2023/06/19 01:53:52;;;;;;;3.67;3.30;;;24.90;92.50;;;;;;7384291;19;20158;-71
2023/06/19 01:56:18;;;;;;;4.28;3.28;;;24.70;92.90;;;;;;7382501;19;20587;-70
2023/06/19 01:58:44;;;;;;;3.30;3.00;;;24.90;92.70;;;;;;7383914;19;20150;-71
2023/06/19 02:01:10;;;;;;;3.08;2.78;;;25.00;92.70;;;;;;7381146;19;20126;-72
2023/06/19 02:03:35;;;;;;;5.03;3.25;;;24.90;93.10;;;;;;7387649;19;20130;-71
2023/06/19 02:06:01;;;;;;;4.57;2.97;;;25.00;93.60;;;;;;7382603;19;20610;-71
2023/06/19 02:08:27;;;;;;;3.60;2.80;;;24.80;94.40;;;;;;7381609;19;20155;-71
2023/06/19 02:10:52;;;;;;;3.35;2.85;;;24.60;95.00;;;;;;7382804;19;20169;-71
2023/06/19 02:13:18;;;;;;;3.67;2.90;;;24.60;95.50;;;;;;7381124;19;20159;-71
2023/06/19 02:15:44;;;;;;;3.10;2.80;;;24.70;95.50;;;;;;7389272;19;20138;-70
2023/06/19 02:18:09;;;;;;;4.68;2.90;;;24.80;95.70;;;;;;7389342;19;20135;-70
2023/06/19 02:20:35;;;;;;;4.45;2.45;;;24.80;95.80;;;;;;7389286;19;20139;-70
2023/06/19 02:23:01;;;;;;;3.38;3.08;;;24.70;96.10;;;;;;7392907;19;20131;-71
2023/06/19 02:25:26;;;;;;;3.95;3.05;;;24.70;96.40;;;;;;7388357;19;20138;-70
2023/06/19 02:27:52;;;;;;;3.03;2.70;;;24.90;96.40;;;;;;7387764;19;20618;-71
2023/06/19 02:30:18;;;;;;;3.92;3.00;;;24.70;97.20;;;;;;7390561;19;20182;-70
2023/06/19 02:32:44;;;;;;;3.47;2.75;;;24.50;98.00;;;;;;7390136;19;20153;-71
2023/06/19 02:35:11;;;;;;;2.75;2.47;;;24.60;98.30;;;;;;7388157;19;20190;-71
2023/06/19 02:37:37;;;;;;;5.32;2.45;;;24.60;98.40;;;;;;7388669;19;20126;-71
2023/06/19 02:40:04;;;;;;;3.25;2.95;;;24.60;98.40;;;;;;7391054;19;20669;-71
2023/06/19 02:42:30;;;;;;;4.28;2.88;;;24.60;98.60;;;;;;7390606;19;20137;-71
2023/06/19 02:45:02;;;;;;;3.53;2.70;;;24.60;98.60;;;;;;7387089;19;20493;-71
2023/06/19 02:47:30;;;;;;;2.75;2.55;;;24.50;99.00;;;;;;7388386;19;21725;-71
2023/06/19 02:49:59;;;;;;;3.15;2.80;;;24.50;99.50;;;;;;7388438;19;20138;-72
2023/06/19 02:52:25;;;;;;;2.80;2.60;;;24.50;99.70;;;;;;7388101;19;20691;-71
2023/06/19 02:54:51;;;;;;;3.65;2.70;;;24.60;99.70;;;;;;7389819;19;20139;-71
2023/06/19 02:57:16;;;;;;;3.03;2.70;;;24.60;99.70;;;;;;7388874;19;20479;-71
2023/06/19 02:59:42;;;;;;;3.20;2.70;;;24.60;99.90;;;;;;7387160;19;20155;-69
2023/06/19 03:02:08;;;;;;;2.78;2.58;;;24.60;99.90;;;;;;7389749;19;20154;-70
2023/06/19 03:04:34;;;;;;;3.13;2.70;;;24.60;99.90;;;;;;7386155;19;20143;-71
2023/06/19 03:06:59;;;;;;;2.67;2.45;;;24.60;99.90;;;;;;7388263;19;20147;-71
2023/06/19 03:09:26;;;;;;;3.60;2.83;;;24.60;99.90;;;;;;7387645;19;20143;-71
2023/06/19 03:11:52;;;;;;;5.45;2.35;;;24.50;99.90;;;;;;7391702;19;20157;-71
2023/06/19 03:14:18;;;;;;;2.50;2.30;;;24.40;99.90;;;;;;7388468;19;20131;-71
2023/06/19 03:16:43;;;;;;;2.70;2.50;;;24.40;99.90;;;;;;7387853;19;20177;-70
2023/06/19 03:19:09;;;;;;;2.80;2.60;;;24.50;99.90;;;;;;7389158;19;20158;-71
2023/06/19 03:21:35;;;;;;;2.65;2.45;;;24.40;99.90;;;;;;7390760;19;20142;-72
2023/06/19 03:24:01;;;;;;;5.05;2.30;;;24.50;99.90;;;;;;7386699;19;20131;-70
2023/06/19 03:26:26;;;;;;;2.70;2.45;;;24.50;99.90;;;;;;7387057;19;20138;-71
2023/06/19 03:28:52;;;;;;;2.50;2.30;;;24.40;99.90;;;;;;7389827;19;20466;-71
2023/06/19 03:31:18;;;;;;;3.30;2.20;;;24.40;99.90;;;;;;7388553;19;20210;-71
2023/06/19 03:33:44;;;;;;;2.60;2.40;;;24.50;99.90;;;;;;7388049;19;20640;-71
2023/06/19 03:36:10;;;;;;;2.67;2.10;;;24.50;99.90;;;;;;7380213;19;20473;-69
2023/06/19 03:38:36;;;;;;;2.70;2.13;;;24.50;99.90;;;;;;7393207;19;20149;-71
2023/06/19 03:41:02;;;;;;;2.50;2.30;;;24.50;99.90;;;;;;7387055;19;20150;-70
2023/06/19 03:43:28;;;;;;;2.50;2.30;;;24.50;99.90;;;;;;7388830;19;20206;-71
2023/06/19 03:45:53;;;;;;;5.78;2.20;;;24.30;99.90;;;;;;7387522;19;20195;-71
2023/06/19 03:48:21;;;;;;;3.65;2.10;;;24.30;99.90;;;;;;7387346;19;20165;-70
2023/06/19 03:50:46;;;;;;;5.47;2.15;;;24.30;99.90;;;;;;7390471;19;20147;-71
2023/06/19 03:53:12;;;;;;;2.65;2.20;;;24.40;99.90;;;;;;7387394;19;20154;-70
2023/06/19 03:55:38;;;;;;;3.78;2.10;;;24.40;99.90;;;;;;7391576;19;20131;-71
2023/06/19 03:58:03;;;;;;;4.03;2.13;;;24.30;99.90;;;;;;7390047;19;20349;-70
2023/06/19 04:00:29;;;;;;;3.20;2.20;;;24.30;99.90;;;;;;7391125;19;20142;-72
2023/06/19 04:02:56;;;;;;;3.45;2.17;;;24.30;99.90;;;;;;7386945;19;20218;-72
2023/06/19 04:05:22;;;;;;;2.30;2.10;;;24.30;99.90;;;;;;7388597;19;20134;-72
2023/06/19 04:07:47;;;;;;;2.58;2.15;;;24.30;99.90;;;;;;7391465;19;20165;-71
2023/06/19 04:10:13;;;;;;;2.72;2.10;;;24.40;99.90;;;;;;7389067;19;20155;-72
2023/06/19 04:12:40;;;;;;;2.92;2.15;;;24.20;99.90;;;;;;7389584;19;20507;-71
2023/06/19 04:15:07;;;;;;;2.58;1.90;;;24.20;99.90;;;;;;7392144;19;20181;-70
2023/06/19 04:17:33;;;;;;;1.75;1.60;;;24.20;99.90;;;;;;7392615;19;20138;-71
2023/06/19 04:19:58;;;;;;;2.38;1.90;;;24.10;99.90;;;;;;7389538;19;20145;-71
2023/06/19 04:22:24;;;;;;;2.58;2.13;;;23.90;99.90;;;;;;7395199;19;20149;-70
2023/06/19 04:24:50;;;;;;;2.03;1.83;;;24.00;99.90;;;;;;7392013;19;20155;-71
2023/06/19 04:27:15;;;;;;;2.95;2.28;;;23.90;99.90;;;;;;7391453;19;20149;-71
2023/06/19 04:29:41;;;;;;;2.25;2.05;;;23.80;99.90;;;;;;7391083;19;20131;-71
2023/06/19 04:32:11;;;;;;;2.25;1.90;;;23.90;99.90;;;;;;7393507;19;20187;-70
2023/06/19 04:34:45;;;;;;;2.30;1.90;;;23.90;99.90;;;;;;7391594;19;20158;-71
2023/06/19 04:37:12;;;;;;;2.17;1.98;;;23.90;99.90;;;;;;7389358;19;20148;-70
2023/06/19 04:39:38;;;;;;;1.95;1.77;;;24.00;99.90;;;;;;7389700;19;20154;-71
2023/06/19 04:42:04;;;;;;;2.92;2.28;;;24.10;99.90;;;;;;7388648;19;20130;-71
2023/06/19 04:44:33;;;;;;;2.13;1.80;;;24.10;99.90;;;;;;7387973;19;20192;-71
2023/06/19 04:47:01;;;;;;;2.45;1.98;;;24.00;99.90;;;;;;7383232;19;20618;-71
2023/06/19 04:49:30;;;;;;;2.60;2.13;;;24.10;99.90;;;;;;7388254;19;20509;-71
2023/06/19 04:51:57;;;;;;;2.13;1.88;;;23.90;99.90;;;;;;7386165;19;20139;-70
2023/06/19 04:54:23;;;;;;;2.10;1.90;;;24.00;99.90;;;;;;7388003;19;20225;-71
2023/06/19 04:56:49;;;;;;;2.45;1.98;;;24.00;99.90;;;;;;7386341;19;20156;-70
2023/06/19 04:59:17;;;;;;;2.88;1.75;;;24.10;99.90;;;;;;7387360;19;20142;-72
2023/06/19 05:01:44;;;;;;;2.10;1.75;;;24.10;99.90;;;;;;7382966;19;20153;-72
2023/06/19 05:04:11;;;;;;;2.03;1.83;;;24.00;99.90;;;;;;7385989;19;20139;-71
2023/06/19 05:06:37;;;;;;;1.92;1.75;;;24.10;99.90;;;;;;7386294;19;20147;-72
2023/06/19 05:09:04;;;;;;;2.53;1.80;;;24.10;99.90;;;;;;7386341;19;20154;-71
2023/06/19 05:11:29;;;;;;;1.88;1.70;;;24.30;99.90;;;;;;7384152;19;20190;-71
2023/06/19 05:13:55;;;;;;;4.15;2.10;;;24.30;99.90;;;;;;7385940;19;20171;-71
2023/06/19 05:16:22;;;;;;;2.33;2.00;;;24.30;99.90;;;;;;7386268;19;20126;-71
2023/06/19 05:18:49;;;;;;;2.50;1.67;;;24.40;99.90;;;;;;7386361;19;20179;-71
2023/06/19 05:21:15;;;;;;;1.77;1.40;;;24.40;99.90;;;;;;7381391;19;20161;-71
2023/06/19 05:23:41;;;;;;;2.75;2.00;;;24.30;99.90;;;;;;7385950;19;20139;-73
2023/06/19 05:26:06;;;;;;;1.95;1.75;;;24.30;99.90;;;;;;7383024;19;20627;-71
2023/06/19 05:28:32;;;;;;;3.35;1.90;;;24.30;99.90;;;;;;7387365;19;20599;-71
2023/06/19 05:30:58;;;;;;;5.35;2.00;;;24.30;99.90;;;;;;7380251;19;20131;-70
2023/06/19 05:33:24;;;;;;;4.15;2.00;;;24.40;99.90;;;;;;7384711;19;20160;-71
2023/06/19 05:35:53;;;;;;;2.38;2.17;;;24.30;99.90;;;;;;7382614;19;20214;-72
2023/06/19 05:38:20;;;;;;;2.92;2.00;;;24.30;99.90;;;;;;7385577;19;20160;-72
2023/06/19 05:40:46;;;;;;;1.63;1.38;;;24.30;99.90;;;;;;7381435;19;20217;-71
2023/06/19 05:43:12;;;;;;;1.80;1.70;;;24.20;99.90;;;;;;7376254;19;20150;-72
2023/06/19 05:45:38;;;;;;;2.72;1.67;;;24.20;99.90;;;;;;7386982;19;20143;-72
2023/06/19 05:48:04;;;;;;;1.65;1.52;;;24.20;99.90;;;;;;7390151;19;20709;-71
2023/06/19 05:50:30;;;;;;;3.22;1.63;;;24.20;99.90;;;;;;7391138;19;20149;-72
2023/06/19 05:52:56;;;;;;;2.05;1.85;;;24.40;99.90;;;;;;7391596;19;20268;-71
2023/06/19 05:55:24;;;;;;;3.40;2.20;;;24.50;99.90;;;;;;7392605;19;20150;-72
2023/06/19 05:57:50;;;;;;;1.88;1.60;;;24.70;99.90;;;;;;7392898;19;21823;-71
2023/06/19 06:00:17;;;;;;;3.33;1.88;;;24.80;99.90;;;;;;7388106;19;20154;-71
2023/06/19 06:02:43;;;;;;;2.42;1.90;;;24.80;99.90;;;;;;7388425;19;20130;-74
2023/06/19 06:05:09;;;;;;;3.13;1.75;;;24.80;99.90;;;;;;7392068;19;20639;-73
2023/06/19 06:07:35;;;;;;;1.75;1.52;;;24.90;99.90;;;;;;7392310;19;20146;-74
2023/06/19 06:10:02;;;;;;;1.90;1.80;;;24.80;99.90;;;;;;7390979;19;20146;-74
2023/06/19 06:12:28;;;;;;;2.10;1.90;;;24.90;99.90;;;;;;7388901;19;20214;-73
2023/06/19 06:14:54;;;;;;;4.28;1.80;;;24.90;99.90;;;;;;7391875;19;20171;-73
2023/06/19 06:17:20;;;;;;;2.28;1.90;;;25.00;99.90;;;;;;7391153;19;20209;-73
2023/06/19 06:19:45;;;;;;;2.22;2.03;;;25.10;99.90;;;;;;7390228;19;20147;-73
2023/06/19 06:22:11;;;;;;;3.67;1.70;;;25.20;99.90;;;;;;7391380;19;20710;-76
2023/06/19 06:24:37;;;;;;;2.13;1.88;;;25.00;99.90;;;;;;7389524;19;20130;-75
2023/06/19 06:27:03;;;;;;;1.52;1.42;;;25.10;99.90;;;;;;7392609;19;20168;-76
2023/06/19 06:29:28;;;;;;;5.97;5.15;;;25.50;99.90;;;;;;7391797;19;20146;-78
2023/06/19 06:32:05;;;;;;;2.10;1.75;;;26.10;99.90;;;;;;7391512;19;20126;-73
2023/06/19 06:34:32;;;;;;;4.18;2.63;;;27.10;99.90;;;;;;7389047;19;20174;-75
2023/06/19 06:36:58;;;;;;;2.13;1.83;;;28.00;99.90;;;;;;7379721;19;20578;-74
2023/06/19 06:39:24;;;;;;;3.40;1.73;;;29.30;99.90;;;;;;7384317;19;20134;-74
2023/06/19 06:41:50;;;;;;;1.52;1.42;;;30.60;98.00;;;;;;7387942;19;20218;-73
2023/06/19 06:44:16;;;;;;;1.90;1.55;;;31.70;96.00;;;;;;7388239;19;20927;-75
2023/06/19 06:46:41;;;;;;;3.47;1.52;;;32.50;94.00;;;;;;7386611;19;20180;-75
2023/06/19 06:49:07;;;;;;;3.08;1.73;;;33.20;92.30;;;;;;7383719;19;20936;-74
2023/06/19 06:51:33;;;;;;;2.55;1.80;;;33.40;91.50;;;;;;7389017;19;20150;-75
2023/06/19 06:53:59;;;;;;;1.77;1.50;;;33.20;91.00;;;;;;7387240;19;20474;-76
2023/06/19 06:56:24;;;;;;;1.75;1.52;;;32.90;90.80;;;;;;7387083;19;20451;-75
2023/06/19 06:58:50;;;;;;;1.40;1.30;;;31.90;89.60;;;;;;7385244;19;20152;-75
2023/06/19 07:01:19;;;;;;;4.80;1.52;;;31.30;91.00;;;;;;7387412;19;20135;-75
2023/06/19 07:03:45;;;;;;;2.92;1.60;;;29.30;93.40;;;;;;7387099;19;20591;-76
2023/06/19 07:06:11;;;;;;;1.48;1.30;;;28.30;95.40;;;;;;7386105;19;20206;-74
2023/06/19 07:08:37;;;;;;;1.35;1.25;;;27.30;97.70;;;;;;7388367;19;20197;-75
2023/06/19 07:11:03;;;;;;;2.67;1.48;;;27.00;99.20;;;;;;7388934;19;20138;-75
2023/06/19 07:13:28;;;;;;;1.65;1.30;;;26.80;99.90;;;;;;7388392;19;20238;-75
2023/06/19 07:15:54;;;;;;;2.35;1.50;;;26.50;99.90;;;;;;7383068;19;20211;-75
2023/06/19 07:18:20;;;;;;;1.48;1.30;;;26.40;99.90;;;;;;7390046;19;20134;-76
2023/06/19 07:20:46;;;;;;;3.40;2.40;;;26.40;99.90;;;;;;7386516;19;20131;-75
2023/06/19 07:23:11;;;;;;;1.55;1.42;;;26.20;99.90;;;;;;7387193;19;20131;-75
2023/06/19 07:25:37;;;;;;;1.40;1.30;;;26.20;99.90;;;;;;7386916;19;20584;-74
2023/06/19 07:28:04;;;;;;;2.85;1.70;;;26.20;99.90;;;;;;7387801;19;20151;-76
2023/06/19 07:30:31;;;;;;;1.60;1.50;;;26.20;99.90;;;;;;7387092;19;20166;-77
2023/06/19 07:32:56;;;;;;;1.73;1.30;;;26.30;99.90;;;;;;7388761;19;20250;-76
2023/06/19 07:35:22;;;;;;;2.28;1.58;;;26.80;99.90;;;;;;7386857;19;20129;-76
2023/06/19 07:37:48;;;;;;;2.10;1.60;;;27.70;99.90;;;;;;7386075;19;20439;-75
2023/06/19 07:40:15;;;;;;;2.00;1.70;;;29.00;98.70;;;;;;7386355;19;20131;-79
2023/06/19 07:42:41;;;;;;;1.80;1.60;;;30.60;95.60;;;;;;7391136;19;20134;-77
2023/06/19 07:45:08;;;;;;;2.40;1.50;;;31.40;93.80;;;;;;7386470;19;20237;-74
2023/06/19 07:47:33;;;;;;;1.90;1.42;;;31.90;92.60;;;;;;7387002;19;20166;-75
2023/06/19 07:49:59;;;;;;;1.70;1.50;;;31.60;92.10;;;;;;7385429;19;20146;-77
2023/06/19 07:52:25;;;;;;;1.65;1.55;;;32.20;91.20;;;;;;7388966;19;20485;-75
2023/06/19 07:54:57;;;;;;;1.40;1.10;;;32.10;90.60;;;;;;7387418;19;20150;-76
2023/06/19 07:57:25;;;;;;;2.53;1.70;;;31.10;90.90;;;;;;7386339;19;20158;-75
2023/06/19 07:59:51;;;;;;;1.50;1.40;;;30.10;92.40;;;;;;7384336;19;20153;-76
2023/06/19 08:02:17;;;;;;;5.43;3.15;;;29.60;92.80;;;;;;7386946;19;20154;-79
2023/06/19 08:04:44;;;;;;;1.95;1.75;;;29.10;93.90;;;;;;7385372;19;20166;-77
2023/06/19 08:07:10;;;;;;;1.70;1.48;;;29.40;93.90;;;;;;7381912;19;20211;-75
2023/06/19 08:09:36;;;;;;;2.70;2.50;;;30.20;93.30;;;;;;7385922;19;20213;-73
2023/06/19 08:12:02;;;;;;;2.50;2.10;;;30.60;92.70;;;;;;7384723;19;20137;-76
2023/06/19 08:14:28;;;;;;;4.75;4.22;;;30.30;92.20;;;;;;7390114;19;20127;-74
2023/06/19 08:16:55;;;;;;;2.30;1.88;;;29.60;92.90;;;;;;7383662;19;20161;-74
2023/06/19 08:19:21;;;;;;;1.45;1.35;;;29.70;93.50;;;;;;7387395;19;20606;-76
2023/06/19 08:21:46;;;;;;;1.92;1.50;;;29.80;93.20;;;;;;7388841;19;20135;-76
2023/06/19 08:24:12;;;;;;;3.47;1.73;;;29.70;93.20;;;;;;7385970;19;20572;-74
2023/06/19 08:26:38;;;;;;;2.03;1.70;;;29.60;93.30;;;;;;7384080;19;20203;-75
2023/06/19 08:29:04;;;;;;;2.25;1.88;;;29.10;93.60;;;;;;7385876;19;20586;-74
2023/06/19 08:31:29;;;;;;;2.00;1.80;;;28.70;94.40;;;;;;7386651;19;20155;-75
2023/06/19 08:33:56;;;;;;;1.92;1.50;;;28.50;94.70;;;;;;7384687;19;20157;-75
2023/06/19 08:36:22;;;;;;;1.77;1.67;;;28.30;95.10;;;;;;7385010;19;20150;-77
2023/06/19 08:38:49;;;;;;;3.60;1.90;;;28.10;95.70;;;;;;7384101;19;20130;-76
2023/06/19 08:41:21;;;;;;;2.08;1.63;;;27.90;96.20;;;;;;7383829;19;20157;-75
2023/06/19 08:43:47;;;;;;;3.78;2.58;;;27.40;97.10;;;;;;7382280;19;20594;-77
2023/06/19 08:46:17;;;;;;;3.22;1.80;;;27.30;97.60;;;;;;7381786;19;20181;-77
2023/06/19 08:48:44;;;;;;;2.53;1.92;;;27.60;97.30;;;;;;7384170;19;20547;-76
2023/06/19 08:51:11;;;;;;;3.95;2.58;;;27.80;97.10;;;;;;7385043;19;20263;-74
2023/06/19 08:53:45;;;;;;;2.15;1.92;;;28.20;97.10;;;;;;7382358;19;20149;-77
2023/06/19 08:56:11;;;;;;;6.22;1.70;;;28.90;95.90;;;;;;7383395;19;20155;-76
2023/06/19 08:58:37;;;;;;;2.97;1.73;;;29.20;94.90;;;;;;7386261;19;20126;-77
2023/06/19 09:01:03;;;;;;;1.85;1.63;;;29.00;94.60;;;;;;7378548;19;20157;-77
2023/06/19 09:03:29;;;;;;;1.73;1.63;;;29.00;94.80;;;;;;7382660;19;20155;-77
2023/06/19 09:05:55;;;;;;;2.28;2.08;;;29.00;95.50;;;;;;7384924;19;20153;-77
2023/06/19 09:08:22;;;;;;;2.40;2.13;;;29.30;94.90;;;;;;7385227;19;20179;-76
2023/06/19 09:11:02;;;;;;;2.22;2.03;;;29.60;94.30;;;;;;7386734;19;20578;-76
2023/06/19 09:13:29;;;;;;;3.63;1.50;;;29.70;93.80;;;;;;7382568;19;20229;-79
2023/06/19 09:16:04;;;;;;;1.90;1.80;;;29.70;93.70;;;;;;7383996;19;20163;-77
2023/06/19 09:18:47;;;;;;;2.42;1.58;;;29.90;93.60;;;;;;7384291;19;20242;-78
2023/06/19 09:21:24;;;;;;;1.80;1.70;;;29.80;93.40;;;;;;7380494;19;20159;-76
2023/06/19 09:23:53;;;;;;;2.58;1.98;;;29.30;93.80;;;;;;7392067;19;20627;-77
2023/06/19 09:26:20;;;;;;;3.33;2.72;;;29.20;94.40;;;;;;7389289;19;20134;-79
2023/06/19 09:28:46;;;;;;;1.63;1.52;;;29.60;94.40;;;;;;7390129;19;20106;-75
2023/06/19 09:31:12;;;;;;;2.33;2.13;;;29.90;93.20;;;;;;7389865;19;20502;-76
2023/06/19 09:33:39;;;;;;;1.60;1.50;;;30.00;93.10;;;;;;7389245;19;20150;-78
2023/06/19 09:36:05;;;;;;;1.50;1.40;;;30.10;93.20;;;;;;7388820;19;20210;-78
2023/06/19 09:38:40;;;;;;;1.80;1.70;;;30.30;93.30;;;;;;7390496;19;20540;-78
2023/06/19 09:41:06;;;;;;;1.92;1.73;;;30.20;92.20;;;;;;7386729;19;20221;-75
2023/06/19 09:43:40;;;;;;;3.75;2.00;;;29.80;92.70;;;;;;7390540;19;20214;-76
2023/06/19 09:46:07;;;;;;;2.67;1.83;;;29.40;93.40;;;;;;7388483;19;20195;-76
2023/06/19 09:48:34;;;;;;;2.17;1.98;;;29.30;94.30;;;;;;7392476;19;20657;-79
2023/06/19 09:51:46;;;;;;;2.08;1.88;;;29.30;93.90;;;;;;7393373;19;20658;-78
2023/06/19 09:54:15;;;;;;;2.40;1.95;;;28.80;94.80;;;;;;7392775;19;20175;-78
2023/06/19 09:56:41;;;;;;;2.97;2.00;;;28.60;95.40;;;;;;7392131;19;20139;-78
2023/06/19 09:59:09;;;;;;;2.42;1.60;;;28.30;95.60;;;;;;7388866;19;20467;-80
2023/06/19 10:01:36;;;;;;;2.20;2.00;;;28.20;96.30;;;;;;7387592;19;20570;-80
2023/06/19 10:04:05;;;;;;;2.67;2.00;;;28.20;96.40;;;;;;7389309;19;20134;-77
2023/06/19 10:06:31;;;;;;;2.17;2.00;;;28.30;96.60;;;;;;7390157;19;20472;-79
2023/06/19 10:09:06;;;;;;;2.97;1.80;;;28.40;96.20;;;;;;7387188;19;20150;-77
2023/06/19 10:11:52;;;;;;;2.47;2.20;;;28.40;96.10;;;;;;7387799;19;20150;-79
2023/06/19 10:14:22;;;;;;;2.35;2.00;;;28.40;96.00;;;;;;7389181;19;20178;-77
2023/06/19 10:16:52;;;;;;;2.13;1.90;;;28.40;96.10;;;;;;7388847;19;20126;-79
2023/06/19 10:19:21;;;;;;;1.98;1.80;;;28.60;96.20;;;;;;7386436;19;20212;-79
2023/06/19 10:21:50;;;;;;;2.55;2.35;;;28.70;95.60;;;;;;7388010;19;20154;-79
2023/06/19 10:24:19;;;;;;;2.50;2.30;;;28.80;95.50;;;;;;7389735;19;20139;-76
2023/06/19 10:26:57;;;;;;;3.05;2.20;;;28.80;95.90;;;;;;7388072;19;20154;-78
2023/06/19 10:29:23;;;;;;;2.80;2.28;;;28.80;96.00;;;;;;7390424;19;20153;-82
2023/06/19 10:31:50;;;;;;;2.42;2.22;;;29.00;96.20;;;;;;7392680;19;20221;-78
2023/06/19 10:34:16;;;;;;;2.38;2.17;;;29.10;95.80;;;;;;7383385;19;20143;-75
2023/06/19 10:36:41;;;;;;;3.63;2.20;;;29.10;95.90;;;;;;7388237;19;20165;-79
2023/06/19 10:39:07;;;;;;;5.43;2.63;;;29.20;95.90;;;;;;7387534;19;20222;-81
2023/06/19 10:41:33;;;;;;;2.65;2.08;;;29.20;95.70;;;;;;7386518;19;20142;-75
2023/06/19 10:43:59;;;;;;;3.13;2.55;;;29.10;95.80;;;;;;7391840;19;20135;-79
2023/06/19 10:46:33;;;;;;;2.35;2.15;;;29.00;96.10;;;;;;7389123;19;20154;-79
2023/06/19 10:49:04;;;;;;;2.35;2.15;;;28.80;96.40;;;;;;7385149;19;20139;-79
2023/06/19 10:51:41;;;;;;;2.63;2.40;;;28.60;96.90;;;;;;7389211;19;20130;-79
2023/06/19 10:54:07;;;;;;;3.45;2.13;;;28.40;97.30;;;;;;7390312;19;20141;-79
2023/06/19 10:56:33;;;;;;;4.05;2.30;;;28.30;97.70;;;;;;7390947;19;20137;-78
2023/06/19 10:59:02;;;;;;;2.75;2.28;;;28.10;98.10;;;;;;7389673;19;20720;-79
2023/06/19 11:01:37;;;;;;;2.42;2.22;;;28.10;98.30;;;;;;7389738;19;20146;-78
2023/06/19 11:04:07;;;;;;;2.85;2.00;;;27.90;98.40;;;;;;7393057;19;20153;-79
2023/06/19 11:06:34;;;;;;;2.45;2.25;;;27.90;98.50;;;;;;7386733;19;20606;-80
2023/06/19 11:09:00;;;;;;;2.33;2.13;;;28.00;98.60;;;;;;7386627;19;20135;-80
2023/06/19 11:11:43;;;;;;;3.75;2.40;;;28.20;98.50;;;;;;7390896;19;20133;-80
2023/06/19 11:14:12;;;;;;;2.30;2.10;;;28.20;98.30;;;;;;7387670;19;20398;-80
2023/06/19 11:16:40;;;;;;;2.60;2.10;;;28.00;98.90;;;;;;7386957;19;20634;-79
2023/06/19 11:19:17;;;;;;;2.28;2.08;;;28.10;98.90;;;;;;7385260;19;20150;-82
2023/06/19 11:21:46;;;;;;;2.13;1.92;;;28.10;98.90;;;;;;7386103;19;20216;-78
2023/06/19 11:24:14;;;;;;;2.83;2.60;;;28.20;98.90;;;;;;7389089;19;20488;-79
2023/06/19 11:26:43;;;;;;;2.78;2.05;;;28.40;98.70;;;;;;7386710;19;20634;-81
2023/06/19 11:29:32;;;;;;;2.38;2.00;;;28.60;98.40;;;;;;7386690;19;20130;-80
2023/06/19 11:32:08;;;;;;;2.47;2.28;;;28.70;98.20;;;;;;7388340;19;20264;-80
2023/06/19 11:34:36;;;;;;;2.35;2.10;;;28.60;98.20;;;;;;7387179;19;20139;-78
2023/06/19 11:37:22;;;;;;;2.65;2.45;;;28.70;97.90;;;;;;7386573;19;20606;-78
2023/06/19 11:39:52;;;;;;;3.10;2.25;;;28.80;98.10;;;;;;7381039;19;20441;-79
2023/06/19 11:42:18;;;;;;;3.20;2.30;;;29.20;97.60;;;;;;7388583;19;20590;-78
2023/06/19 11:45:01;;;;;;;2.40;2.20;;;29.40;96.70;;;;;;7384751;19;20149;-79
2023/06/19 11:47:31;;;;;;;3.85;3.45;;;29.50;96.60;;;;;;7386264;19;20133;-78
2023/06/19 11:49:56;;;;;;;3.05;2.55;;;29.70;96.20;;;;;;7382387;19;20450;-77
2023/06/19 11:52:22;;;;;;;3.10;2.13;;;29.60;96.10;;;;;;7385466;19;20146;-78
2023/06/19 11:54:48;;;;;;;2.42;2.22;;;29.70;95.80;;;;;;7386337;19;20146;-76
2023/06/19 11:57:13;;;;;;;2.92;1.90;;;29.90;95.70;;;;;;7387540;19;20471;-76
2023/06/19 11:59:40;;;;;;;2.47;2.13;;;29.90;95.50;;;;;;7384311;19;20134;-79
2023/06/19 12:02:07;;;;;;;2.35;2.15;;;29.90;94.80;;;;;;7385271;19;20145;-78
2023/06/19 12:04:33;;;;;;;3.40;2.15;;;29.80;95.00;;;;;;7387904;19;20184;-77
2023/06/19 12:06:59;;;;;;;2.38;2.17;;;29.90;95.00;;;;;;7385573;19;20134;-78
2023/06/19 12:09:25;;;;;;;17.10;13.75;;;30.00;94.60;;;;;;7386461;19;20905;-76
2023/06/19 12:11:51;;;;;;;2.80;2.47;;;29.80;95.50;;;;;;7384180;19;20167;-78
2023/06/19 12:14:19;;;;;;;3.70;2.42;;;29.80;95.00;;;;;;7387798;19;20147;-80
2023/06/19 12:16:48;;;;;;;3.55;2.17;;;29.90;94.80;;;;;;7384701;19;20278;-77
2023/06/19 12:19:14;;;;;;;3.38;3.08;;;29.60;95.10;;;;;;7389028;19;20134;-78
2023/06/19 12:21:40;;;;;;;2.80;2.40;;;29.20;95.70;;;;;;7382431;19;20127;-75
2023/06/19 12:24:06;;;;;;;3.00;2.42;;;29.20;95.90;;;;;;7388590;19;20603;-77
2023/06/19 12:26:36;;;;;;;3.63;2.65;;;29.30;95.80;;;;;;7386093;19;20157;-77
2023/06/19 12:29:03;;;;;;;2.60;2.30;;;29.40;95.60;;;;;;7386711;19;20151;-78
2023/06/19 12:31:29;;;;;;;2.65;2.45;;;29.40;95.60;;;;;;7385381;19;20815;-77
2023/06/19 12:33:55;;;;;;;2.70;2.40;;;29.30;95.60;;;;;;7385854;19;20578;-76
2023/06/19 12:36:21;;;;;;;2.47;2.28;;;29.30;95.80;;;;;;7384532;19;20161;-78
2023/06/19 12:38:48;;;;;;;2.72;2.40;;;29.50;95.70;;;;;;7385822;19;20143;-77
2023/06/19 12:41:15;;;;;;;3.20;2.90;;;29.60;96.10;;;;;;7379859;19;20214;-77
2023/06/19 12:43:41;;;;;;;2.90;2.25;;;29.90;95.40;;;;;;7386422;19;20234;-77
2023/06/19 12:46:08;;;;;;;3.30;2.35;;;30.10;95.00;;;;;;7384194;19;20531;-78
2023/06/19 12:48:34;;;;;;;2.42;2.22;;;30.10;94.80;;;;;;7385823;19;20158;-77